Time;durP1;ratioP1;P1;durP2;ratioP2;P2;SDS_P1;SDS_P2;PMS_P1;PMS_P2;Temp;Humidity;BMP_temperature;BMP_pressure;BME280_temperature;BME280_humidity;BME280_pressure;Samples;Min_cycle;Max_cycle;Signal;HPM_P1;HPM_P2
2023/04/01 00:01:30;;;;;;;3.75;1.20;;;;;;;13.69;62.50;99057.16;4918759;28;113876;-78
2023/04/01 00:03:57;;;;;;;3.00;1.48;;;;;;;13.66;62.56;99058.28;4912341;28;113325;-78
2023/04/01 00:06:24;;;;;;;3.25;1.40;;;;;;;13.65;62.67;99056.59;4937218;28;123139;-77
2023/04/01 00:08:52;;;;;;;3.28;1.23;;;;;;;13.64;62.72;99054.91;4938081;28;124334;-78
2023/04/01 00:11:21;;;;;;;5.43;1.33;;;;;;;13.65;62.68;99061.06;4937981;28;112449;-78
2023/04/01 00:13:49;;;;;;;4.78;1.45;;;;;;;13.64;62.71;99054.91;4926339;28;114882;-79
2023/04/01 00:16:16;;;;;;;3.97;1.08;;;;;;;13.63;62.68;99063.84;4927208;28;124586;-78
2023/04/01 00:18:49;;;;;;;3.95;1.58;;;;;;;13.63;62.64;99058.53;4940604;28;124623;-79
2023/04/01 00:21:17;;;;;;;5.40;1.50;;;;;;;13.64;62.85;99054.91;4929159;28;114951;-79
2023/04/01 00:23:44;;;;;;;4.75;1.52;;;;;;;13.62;62.79;99067.50;4925905;28;113140;-77
2023/04/01 00:26:12;;;;;;;4.85;1.50;;;;;;;13.61;62.76;99060.50;4904188;28;125118;-78
2023/04/01 00:28:41;;;;;;;5.68;1.33;;;;;;;13.61;62.98;99063.16;4936905;28;125296;-78
2023/04/01 00:31:10;;;;;;;4.07;1.15;;;;;;;13.60;62.83;99069.47;4905473;28;114216;-77
2023/04/01 00:33:38;;;;;;;3.63;1.20;;;;;;;13.60;62.76;99058.81;4940731;28;115540;-78
2023/04/01 00:36:11;;;;;;;3.10;1.30;;;;;;;13.60;62.94;99064.13;4923902;28;122045;-78
2023/04/01 00:38:38;;;;;;;3.53;1.45;;;;;;;13.58;63.01;99066.06;4922472;28;124167;-77
2023/04/01 00:41:06;;;;;;;2.88;1.02;;;;;;;13.58;63.02;99066.94;4922438;28;115928;-78
2023/04/01 00:43:33;;;;;;;2.33;1.00;;;;;;;13.58;63.02;99069.59;4938694;28;114252;-78
2023/04/01 00:46:01;;;;;;;3.90;1.15;;;;;;;13.60;63.21;99069.47;4921555;28;124080;-78
2023/04/01 00:48:35;;;;;;;4.32;1.20;;;;;;;13.58;63.12;99071.38;4925732;28;122333;-78
2023/04/01 00:51:09;;;;;;;2.58;1.10;;;;;;;13.59;63.08;99067.75;4918667;28;115799;-77
2023/04/01 00:53:42;;;;;;;3.72;1.45;;;;;;;13.58;63.17;99082.03;4923703;28;114846;-78
2023/04/01 00:56:17;;;;;;;5.78;1.25;;;;;;;13.56;63.10;99082.19;4916876;28;124746;-78
2023/04/01 00:58:50;;;;;;;3.10;1.30;;;;;;;13.55;63.08;99082.31;4937136;28;124390;-78
2023/04/01 01:01:20;;;;;;;2.90;1.30;;;;;;;13.55;63.19;99077.81;4922140;28;117471;-77
2023/04/01 01:03:47;;;;;;;4.65;1.48;;;;;;;13.56;63.19;99078.66;4934833;28;113555;-78
2023/04/01 01:06:23;;;;;;;3.95;1.35;;;;;;;13.55;63.07;99082.31;4936512;28;123136;-77
2023/04/01 01:09:14;;;;;;;4.55;1.60;;;;;;;13.54;63.20;99080.59;4924921;28;123218;-78
2023/04/01 01:11:48;;;;;;;5.75;1.60;;;;;;;13.53;63.19;99084.25;4930075;28;115259;-78
2023/04/01 01:14:18;;;;;;;4.15;1.80;;;;;;;13.53;63.27;99089.56;4922244;28;113998;-78
2023/04/01 01:16:56;;;;;;;3.72;1.90;;;;;;;13.52;63.32;99087.88;4919777;28;124883;-78
2023/04/01 01:19:47;;;;;;;5.22;1.90;;;;;;;13.50;63.31;99084.50;4936337;28;123562;-77
2023/04/01 01:22:21;;;;;;;3.63;1.73;;;;;;;13.52;63.17;99098.50;4933784;28;116150;-78
2023/04/01 01:25:17;;;;;;;2.50;1.73;;;;;;;13.52;63.17;99095.84;4944520;28;115522;-78
2023/04/01 01:27:54;;;;;;;5.18;2.30;;;;;;;13.53;63.24;99105.53;4947229;28;123737;-77
2023/04/01 01:30:49;;;;;;;4.82;2.10;;;;;;;13.54;63.35;99099.22;4956036;28;124968;-82
2023/04/01 01:33:47;;;;;;;3.60;1.97;;;;;;;13.52;63.12;99093.19;4941370;28;112256;-78
2023/04/01 01:36:16;;;;;;;6.25;2.17;;;;;;;13.52;63.30;99109.16;4925561;28;114846;-78
2023/04/01 01:38:45;;;;;;;4.13;2.28;;;;;;;13.51;63.34;99096.84;4926163;28;124851;-78
2023/04/01 01:41:16;;;;;;;3.10;2.70;;;;;;;13.51;63.35;99102.16;4907010;28;125336;-78
2023/04/01 01:43:48;;;;;;;3.30;2.15;;;;;;;13.52;63.40;99101.16;4938503;28;114750;-78
2023/04/01 01:46:22;;;;;;;4.03;2.50;;;;;;;13.53;63.38;99105.53;4919904;28;115033;-78
2023/04/01 01:48:51;;;;;;;3.42;2.60;;;;;;;13.54;63.40;99107.19;4938415;28;123826;-78
2023/04/01 01:51:21;;;;;;;3.22;2.70;;;;;;;13.53;63.43;99110.84;4915367;28;123071;-78
2023/04/01 01:53:48;;;;;;;3.30;3.00;;;;;;;13.54;63.20;99113.38;4921542;28;115604;-78
2023/04/01 01:56:19;;;;;;;3.80;2.80;;;;;;;13.54;63.42;99107.19;4921033;28;114609;-78
2023/04/01 01:58:55;;;;;;;4.35;2.85;;;;;;;13.54;63.47;99110.72;4938352;28;124418;-78
2023/04/01 02:01:25;;;;;;;3.33;2.75;;;;;;;13.55;63.49;99114.22;4936515;28;126374;-78
2023/04/01 02:03:57;;;;;;;5.47;2.90;;;;;;;13.54;63.43;99113.38;4919382;28;113620;-79
2023/04/01 02:06:30;;;;;;;3.72;3.13;;;;;;;13.53;63.48;99116.16;4920465;28;115263;-77
2023/04/01 02:09:02;;;;;;;3.95;3.42;;;;;;;13.53;63.50;99110.84;4919364;28;124727;-78
2023/04/01 02:11:34;;;;;;;4.60;3.40;;;;;;;13.52;63.52;99119.78;4938102;28;123749;-78
2023/04/01 02:14:06;;;;;;;5.47;3.38;;;;;;;13.50;63.73;99121.75;4934520;28;115461;-78
2023/04/01 02:16:49;;;;;;;4.45;3.53;;;;;;;13.50;63.53;99127.06;4918734;28;115732;-78
2023/04/01 02:19:22;;;;;;;5.07;3.88;;;;;;;13.49;63.74;99126.22;4931951;28;125512;-78
2023/04/01 02:21:55;;;;;;;4.15;3.63;;;;;;;13.49;63.67;99125.38;4922539;28;125188;-78
2023/04/01 02:24:24;;;;;;;4.97;3.55;;;;;;;13.49;63.65;99133.38;4934736;28;115312;-78
2023/04/01 02:26:52;;;;;;;4.88;3.83;;;;;;;13.49;63.68;99128.88;4936242;28;115864;-78
2023/04/01 02:29:21;;;;;;;5.15;4.28;;;;;;;13.49;63.76;99136.03;4924215;28;123740;-77
2023/04/01 02:31:50;;;;;;;6.30;4.55;;;;;;;13.50;63.82;99132.38;4929779;28;124949;-77
2023/04/01 02:34:19;;;;;;;5.95;4.65;;;;;;;13.50;63.74;99132.38;4934950;28;115210;-78
2023/04/01 02:36:48;;;;;;;7.63;5.47;;;;;;;13.51;63.76;99131.41;4937646;28;114745;-78
2023/04/01 02:39:15;;;;;;;7.65;5.78;;;;;;;13.51;63.80;99140.22;4905752;28;125474;-77
2023/04/01 02:41:44;;;;;;;9.13;5.50;;;;;;;13.51;63.92;99134.06;4918772;28;124871;-78
2023/04/01 02:44:14;;;;;;;7.68;5.28;;;;;;;13.52;63.88;99146.38;4938587;28;114207;-78
2023/04/01 02:46:42;;;;;;;6.85;5.25;;;;;;;13.51;63.81;99150.03;4920022;28;113121;-78
2023/04/01 02:49:10;;;;;;;6.30;5.05;;;;;;;13.51;63.74;99150.03;4927016;28;125505;-78
2023/04/01 02:51:37;;;;;;;6.95;5.18;;;;;;;13.49;63.80;99151.97;4935838;28;124554;-78
2023/04/01 02:54:05;;;;;;;5.05;4.28;;;;;;;13.49;63.67;99154.66;4909241;28;113581;-78
2023/04/01 02:56:32;;;;;;;5.93;4.80;;;;;;;13.47;63.75;99153.91;4938964;28;114773;-78
2023/04/01 02:58:59;;;;;;;5.38;4.25;;;;;;;13.46;63.92;99146.91;4934248;28;124510;-78
2023/04/01 03:01:26;;;;;;;6.18;4.10;;;;;;;13.43;63.76;99154.19;4918130;28;124247;-78
2023/04/01 03:03:53;;;;;;;6.95;4.40;;;;;;;13.42;63.74;99157.78;4936505;28;115181;-78
2023/04/01 03:06:20;;;;;;;6.18;4.35;;;;;;;13.42;63.88;99155.13;4939162;28;117986;-78
2023/04/01 03:08:48;;;;;;;7.28;4.75;;;;;;;13.41;63.71;99155.25;4937010;28;124730;-78
2023/04/01 03:11:15;;;;;;;6.78;4.70;;;;;;;13.40;63.64;99161.56;4936010;28;124273;-79
2023/04/01 03:13:42;;;;;;;7.47;5.32;;;;;;;13.38;63.75;99161.69;4919811;28;115515;-78
2023/04/01 03:16:10;;;;;;;7.15;5.88;;;;;;;13.37;63.73;99168.00;4906832;28;115648;-78
2023/04/01 03:18:38;;;;;;;7.68;5.88;;;;;;;13.36;63.80;99163.63;4920426;28;124909;-78
2023/04/01 03:21:19;;;;;;;7.50;5.82;;;;;;;13.35;63.62;99167.25;4925028;28;123240;-78
2023/04/01 03:23:46;;;;;;;9.85;6.47;;;;;;;13.35;63.64;99167.25;4919930;28;114226;-78
2023/04/01 03:26:14;;;;;;;9.82;6.43;;;;;;;13.32;63.81;99162.22;4938942;28;114089;-78
2023/04/01 03:28:41;;;;;;;9.32;6.72;;;;;;;13.33;63.80;99169.19;4921545;28;123533;-78
2023/04/01 03:31:08;;;;;;;9.30;6.95;;;;;;;13.32;63.89;99167.53;4936182;28;125710;-78
2023/04/01 03:33:42;;;;;;;9.43;6.75;;;;;;;13.32;63.69;99167.53;4920575;28;113288;-78
2023/04/01 03:36:12;;;;;;;9.80;6.68;;;;;;;13.33;63.87;99174.53;4940742;28;113047;-78
2023/04/01 03:38:41;;;;;;;10.25;6.95;;;;;;;13.31;63.93;99178.28;4921309;28;123370;-77
2023/04/01 03:41:13;;;;;;;10.00;7.03;;;;;;;13.30;63.90;99174.78;4906667;28;124943;-78
2023/04/01 03:43:41;;;;;;;10.65;7.68;;;;;;;13.30;63.91;99168.56;4913599;28;113374;-78
2023/04/01 03:46:10;;;;;;;11.65;7.72;;;;;;;13.31;64.00;99170.31;4926629;28;115253;-78
2023/04/01 03:48:37;;;;;;;13.18;8.13;;;;;;;13.29;63.97;99165.09;4908544;28;125181;-78
2023/04/01 03:51:08;;;;;;;10.13;7.07;;;;;;;13.27;64.09;99169.69;4924662;28;124714;-78
2023/04/01 03:53:36;;;;;;;11.00;7.68;;;;;;;13.27;64.06;99169.69;4924564;28;116114;-79
2023/04/01 03:56:06;;;;;;;10.60;7.55;;;;;;;13.26;64.10;99170.69;4915819;28;115457;-78
2023/04/01 03:58:36;;;;;;;10.32;7.38;;;;;;;13.25;63.98;99171.63;4944342;28;123826;-78
2023/04/01 04:01:20;;;;;;;11.02;7.70;;;;;;;13.23;64.03;99184.22;4926850;28;124502;-79
2023/04/01 04:03:50;;;;;;;11.10;7.80;;;;;;;13.23;64.13;99178.91;4927812;28;114290;-78
2023/04/01 04:06:19;;;;;;;10.45;7.10;;;;;;;13.21;63.98;99175.53;4945349;28;112157;-79
2023/04/01 04:08:47;;;;;;;9.63;7.05;;;;;;;13.20;64.07;99184.44;4917981;28;124285;-78
2023/04/01 04:11:15;;;;;;;12.43;7.35;;;;;;;13.21;64.09;99183.50;4941938;28;123934;-76
2023/04/01 04:13:43;;;;;;;10.68;6.68;;;;;;;13.20;64.24;99192.44;4923297;28;114496;-79
2023/04/01 04:16:11;;;;;;;10.48;6.80;;;;;;;13.20;64.18;99189.78;4916475;28;114641;-78
2023/04/01 04:18:43;;;;;;;10.60;6.32;;;;;;;13.20;64.10;99203.94;4935702;28;125240;-78
2023/04/01 04:21:15;;;;;;;11.07;6.10;;;;;;;13.20;64.22;99195.09;4920514;28;124097;-78
2023/04/01 04:23:42;;;;;;;8.80;5.63;;;;;;;13.19;64.03;99196.06;4905774;28;114415;-77
2023/04/01 04:26:14;;;;;;;9.40;6.10;;;;;;;13.18;64.19;99202.34;4940123;28;115016;-77
2023/04/01 04:28:46;;;;;;;8.43;5.75;;;;;;;13.19;64.04;99204.06;4934809;28;125073;-78
2023/04/01 04:31:23;;;;;;;8.32;5.45;;;;;;;13.16;64.19;99199.81;4940080;28;125157;-75
2023/04/01 04:33:52;;;;;;;6.68;4.30;;;;;;;13.17;64.00;99211.31;4935273;28;113391;-77
2023/04/01 04:36:21;;;;;;;6.50;4.40;;;;;;;13.17;64.06;99206.00;4926478;28;115080;-77
2023/04/01 04:38:50;;;;;;;5.68;4.18;;;;;;;13.15;63.93;99215.91;4925895;28;123364;-77
2023/04/01 04:41:18;;;;;;;5.50;3.83;;;;;;;13.11;64.18;99202.03;4922406;28;123188;-77
2023/04/01 04:43:54;;;;;;;4.93;3.67;;;;;;;13.11;64.29;99206.47;4935624;28;116372;-77
2023/04/01 04:46:23;;;;;;;5.95;3.85;;;;;;;13.11;64.08;99211.78;4926799;28;115509;-77
2023/04/01 04:48:56;;;;;;;6.65;4.25;;;;;;;13.11;64.15;99207.34;4938790;28;124857;-77
2023/04/01 04:51:23;;;;;;;5.43;4.00;;;;;;;13.10;64.07;99210.97;4943231;28;125420;-77
2023/04/01 04:53:50;;;;;;;6.82;4.40;;;;;;;13.10;64.19;99220.75;4917310;28;114364;-77
2023/04/01 04:56:22;;;;;;;4.93;4.15;;;;;;;13.10;64.08;99220.75;4942284;28;115048;-76
2023/04/01 04:58:59;;;;;;;5.38;3.50;;;;;;;13.08;63.97;99228.84;4929781;28;123705;-77
2023/04/01 05:01:39;;;;;;;4.85;3.88;;;;;;;13.08;64.04;99225.34;4920181;28;123616;-77
2023/04/01 05:04:07;;;;;;;5.15;3.45;;;;;;;13.08;64.14;99228.00;4934956;28;114950;-77
2023/04/01 05:06:34;;;;;;;4.13;3.35;;;;;;;13.05;64.08;99234.41;4924360;28;114721;-77
2023/04/01 05:09:02;;;;;;;7.30;3.45;;;;;;;13.02;64.30;99230.19;4920872;28;125295;-78
2023/04/01 05:11:29;;;;;;;4.20;3.10;;;;;;;13.02;64.13;99235.50;4923303;28;124261;-77
2023/04/01 05:13:56;;;;;;;6.93;3.38;;;;;;;13.02;64.17;99235.50;4904521;28;115455;-78
2023/04/01 05:16:23;;;;;;;5.05;3.67;;;;;;;13.00;64.18;99242.75;4903980;28;114341;-78
2023/04/01 05:18:51;;;;;;;7.05;3.50;;;;;;;12.99;64.15;99246.38;4920051;28;125176;-77
2023/04/01 05:21:18;;;;;;;6.43;3.60;;;;;;;13.00;64.23;99248.06;4920603;28;125276;-77
2023/04/01 05:23:46;;;;;;;4.38;3.05;;;;;;;13.00;64.30;99241.94;4916228;28;116225;-78
2023/04/01 05:26:15;;;;;;;5.32;3.72;;;;;;;13.01;64.26;99251.56;4905221;28;114443;-77
2023/04/01 05:28:42;;;;;;;5.97;3.53;;;;;;;12.99;64.05;99251.69;4918680;28;124242;-78
2023/04/01 05:31:09;;;;;;;4.43;3.20;;;;;;;12.99;64.15;99257.00;4921326;28;125385;-78
2023/04/01 05:33:42;;;;;;;5.00;3.50;;;;;;;12.99;64.17;99257.00;4920268;28;114394;-78
2023/04/01 05:36:15;;;;;;;4.65;3.53;;;;;;;12.98;64.07;99268.63;4919171;28;115953;-78
2023/04/01 05:38:45;;;;;;;6.80;3.67;;;;;;;12.98;64.22;99265.97;4933242;28;125986;-78
2023/04/01 05:41:14;;;;;;;5.07;3.70;;;;;;;12.99;64.14;99267.63;4919230;28;124589;-78
2023/04/01 05:43:45;;;;;;;5.65;3.97;;;;;;;12.99;64.03;99267.63;4916712;28;114954;-78
2023/04/01 05:46:32;;;;;;;5.50;4.30;;;;;;;12.98;64.15;99271.28;4926306;28;114340;-78
2023/04/01 05:49:09;;;;;;;6.22;4.30;;;;;;;12.97;64.17;99274.88;4912420;28;126115;-78
2023/04/01 05:51:37;;;;;;;9.48;4.45;;;;;;;12.97;64.25;99280.19;4920132;28;123488;-78
2023/04/01 05:54:05;;;;;;;5.93;4.28;;;;;;;12.99;64.30;99288.06;4935635;28;115265;-78
2023/04/01 05:56:33;;;;;;;6.13;4.43;;;;;;;12.99;64.10;99288.06;4903969;28;115262;-78
2023/04/01 05:59:01;;;;;;;7.90;4.65;;;;;;;12.98;64.22;99287.22;4926774;28;125405;-78
2023/04/01 06:01:28;;;;;;;6.88;5.05;;;;;;;12.98;64.35;99287.22;4931581;28;124293;-78
2023/04/01 06:03:55;;;;;;;7.30;4.82;;;;;;;12.99;64.51;99294.22;4947943;28;114649;-78
2023/04/01 06:06:26;;;;;;;6.85;5.10;;;;;;;13.01;64.37;99297.59;4917783;28;115328;-78
2023/04/01 06:09:07;;;;;;;8.40;5.30;;;;;;;13.02;64.32;99304.59;4916717;28;124888;-78
2023/04/01 06:11:48;;;;;;;8.60;5.80;;;;;;;13.03;64.32;99306.31;4912773;28;125313;-77
2023/04/01 06:14:28;;;;;;;8.18;5.50;;;;;;;13.04;64.40;99302.66;4933115;28;115540;-78
2023/04/01 06:17:28;;;;;;;9.30;6.20;;;;;;;13.03;64.32;99311.63;4931076;28;115137;-79
2023/04/01 06:20:19;;;;;;;9.10;5.95;;;;;;;13.04;64.47;99318.63;4918086;28;125420;-79
2023/04/01 06:23:03;;;;;;;10.07;6.25;;;;;;;13.05;64.50;99325.63;4923501;28;126576;-79
2023/04/01 06:25:51;;;;;;;9.60;6.18;;;;;;;13.05;64.49;99330.94;4916352;28;116030;-79
2023/04/01 06:28:41;;;;;;;10.00;6.70;;;;;;;13.09;64.51;99330.69;4938806;28;114404;-79
2023/04/01 06:31:31;;;;;;;12.10;7.45;;;;;;;13.10;64.47;99337.72;4924278;28;123196;-80
2023/04/01 06:34:06;;;;;;;11.25;7.40;;;;;;;13.10;64.57;99340.38;4930469;28;122725;-80
2023/04/01 06:36:56;;;;;;;12.00;7.82;;;;;;;13.12;64.50;99349.06;4928596;28;115635;-79
2023/04/01 06:39:45;;;;;;;12.20;7.70;;;;;;;13.13;64.50;99348.94;4944985;28;115397;-80
2023/04/01 06:42:16;;;;;;;13.30;7.97;;;;;;;13.15;64.69;99351.47;4931374;28;124230;-78
2023/04/01 06:45:04;;;;;;;12.23;8.05;;;;;;;13.16;64.60;99348.69;4926474;28;126048;-78
2023/04/01 06:48:29;;;;;;;14.55;8.60;;;;;;;13.18;64.60;99351.22;4900262;28;114915;-78
2023/04/01 06:51:38;;;;;;;14.43;8.13;;;;;;;13.20;64.62;99359.91;4865643;28;114273;-79
2023/04/01 06:54:47;;;;;;;14.23;7.85;;;;;;;13.23;64.70;99359.69;4974720;28;124524;-81
2023/04/01 06:57:54;;;;;;;13.60;7.93;;;;;;;13.26;64.71;99364.75;4888334;28;125982;-81
2023/04/01 07:00:42;;;;;;;14.85;8.02;;;;;;;13.28;64.68;99368.16;4939603;28;114256;-78
2023/04/01 07:03:23;;;;;;;14.32;8.70;;;;;;;13.31;64.75;99378.53;4921767;28;112771;-78
2023/04/01 07:05:52;;;;;;;12.80;7.72;;;;;;;13.34;64.73;99378.31;4961781;28;122290;-79
2023/04/01 07:08:25;;;;;;;14.93;8.00;;;;;;;13.37;64.78;99383.41;4945046;28;123214;-81
2023/04/01 07:11:03;;;;;;;12.23;7.95;;;;;;;13.41;64.82;99392.81;4925382;28;113793;-78
2023/04/01 07:13:59;;;;;;;13.55;7.60;;;;;;;13.44;64.64;99389.88;4914104;28;114419;-78
2023/04/01 07:16:32;;;;;;;13.13;7.57;;;;;;;13.47;64.76;99388.81;4936593;28;124074;-78
2023/04/01 07:19:11;;;;;;;15.27;7.75;;;;;;;13.51;64.68;99392.06;4930317;28;125222;-78
2023/04/01 07:22:14;;;;;;;12.45;7.50;;;;;;;13.53;64.78;99392.78;4940005;28;116138;-78
2023/04/01 07:25:28;;;;;;;12.32;7.68;;;;;;;13.54;64.59;99405.09;4941023;28;114194;-79
2023/04/01 07:28:16;;;;;;;13.30;7.95;;;;;;;13.55;64.70;99402.31;4930454;28;126172;-78
2023/04/01 07:31:17;;;;;;;14.45;8.05;;;;;;;13.57;64.63;99410.19;4907877;28;124760;-79
2023/04/01 07:34:14;;;;;;;13.70;8.40;;;;;;;13.59;64.53;99418.91;4904828;28;114979;-78
2023/04/01 07:37:09;;;;;;;15.90;8.27;;;;;;;13.62;64.65;99418.66;4936378;28;113752;-79
2023/04/01 07:40:05;;;;;;;15.57;8.80;;;;;;;13.66;64.79;99424.56;4936966;28;123428;-78
2023/04/01 07:42:57;;;;;;;15.00;8.95;;;;;;;13.69;64.64;99429.63;4922966;28;123179;-79
2023/04/01 07:45:38;;;;;;;18.65;9.52;;;;;;;13.72;64.50;99427.56;4961281;28;113274;-80
2023/04/01 07:48:17;;;;;;;17.02;9.60;;;;;;;13.73;64.53;99426.63;4957798;28;113816;-81
2023/04/01 07:51:28;;;;;;;17.33;9.40;;;;;;;13.76;64.60;99431.66;4929907;28;122801;-82
2023/04/01 07:53:59;;;;;;;17.30;8.63;;;;;;;13.80;64.49;99441.09;4945008;28;122577;-82
2023/04/01 07:56:30;;;;;;;15.68;9.55;;;;;;;13.82;64.69;99436.50;4969195;28;114466;-88
2023/04/01 07:59:22;;;;;;;18.60;10.52;;;;;;;13.84;64.50;99455.00;4943816;28;112950;-85
2023/04/01 08:02:12;;;;;;;19.90;9.57;;;;;;;13.89;64.45;99451.97;4934148;28;123796;-86
2023/04/01 08:04:57;;;;;;;17.08;10.00;;;;;;;13.89;64.32;99462.63;4931766;28;123630;-86
2023/04/01 08:07:40;;;;;;;17.23;9.20;;;;;;;13.90;64.47;99461.63;4931627;28;113371;-85
2023/04/01 08:10:52;;;;;;;16.33;8.40;;;;;;;13.91;64.30;99468.66;4947386;28;114745;-84
2023/04/01 08:14:04;;;;;;;15.68;8.73;;;;;;;13.89;64.21;99462.63;4951936;28;125206;-85
2023/04/01 08:17:08;;;;;;;15.27;8.35;;;;;;;13.87;64.23;99467.22;4950495;28;126888;-85
2023/04/01 08:20:08;;;;;;;13.55;8.43;;;;;;;13.87;64.15;99475.22;4919424;28;114816;-86
2023/04/01 08:22:48;;;;;;;16.90;8.82;;;;;;;13.85;64.29;99474.50;4917808;28;113058;-86
2023/04/01 08:25:28;;;;;;;14.63;7.65;;;;;;;13.84;64.10;99486.94;4929417;28;123254;-86
2023/04/01 08:28:03;;;;;;;13.52;7.50;;;;;;;13.84;64.30;99492.25;4932101;28;122693;-86
2023/04/01 08:30:42;;;;;;;12.50;7.25;;;;;;;13.82;64.40;99495.06;4961533;28;114504;-89
2023/04/01 08:33:18;;;;;;;13.23;6.82;;;;;;;13.83;64.25;99501.22;4928753;28;113546;-85
2023/04/01 08:35:59;;;;;;;13.98;6.55;;;;;;;13.82;64.31;99505.72;4936326;28;123384;-82
2023/04/01 08:38:30;;;;;;;11.18;5.72;;;;;;;13.81;64.31;99498.69;4945030;28;124800;-85
2023/04/01 08:41:27;;;;;;;9.98;5.78;;;;;;;13.82;64.21;99513.69;4953249;28;113444;-85
2023/04/01 08:44:42;;;;;;;12.13;5.95;;;;;;;13.81;64.27;99525.28;4918096;28;115001;-85
2023/04/01 08:47:28;;;;;;;10.85;5.97;;;;;;;13.80;64.46;99518.25;4955568;28;123951;-84
2023/04/01 08:50:17;;;;;;;13.73;5.90;;;;;;;13.80;64.35;99518.25;4956246;28;123137;-86
2023/04/01 08:53:44;;;;;;;11.18;5.18;;;;;;;13.80;64.33;99523.59;4953398;28;114367;-82
2023/04/01 08:56:14;;;;;;;14.55;6.00;;;;;;;13.79;64.46;99527.22;4953508;28;115195;-84
2023/04/01 08:58:57;;;;;;;12.70;6.13;;;;;;;13.79;64.62;99537.88;4969912;28;123491;-84
2023/04/01 09:01:54;;;;;;;9.38;5.78;;;;;;;13.80;64.48;99539.56;4963462;28;122960;-85
2023/04/01 09:05:10;;;;;;;12.25;6.05;;;;;;;13.80;64.52;99550.19;4944106;28;115266;-87
2023/04/01 09:08:00;;;;;;;10.80;6.35;;;;;;;13.80;64.56;99555.53;4962986;28;113593;-88
2023/04/01 09:11:05;;;;;;;10.15;6.50;;;;;;;13.79;64.46;99553.84;4958468;28;123837;-88
2023/04/01 09:14:19;;;;;;;9.80;6.40;;;;;;;13.80;64.53;99560.84;4973565;28;125104;-87
2023/04/01 09:17:09;;;;;;;12.05;6.80;;;;;;;13.79;64.65;99563.66;4942780;28;115257;-82
2023/04/01 09:19:55;;;;;;;11.23;6.97;;;;;;;13.80;64.50;99566.16;4939941;28;114668;-85
2023/04/01 09:22:29;;;;;;;11.45;6.63;;;;;;;13.83;64.60;99576.59;4939034;28;123335;-84
2023/04/01 09:25:15;;;;;;;13.25;7.30;;;;;;;13.85;64.63;99576.47;4941154;28;121924;-84
2023/04/01 09:27:54;;;;;;;16.25;7.43;;;;;;;13.86;64.47;99571.97;4941622;28;113949;-85
2023/04/01 09:30:34;;;;;;;14.63;7.53;;;;;;;13.89;64.54;99579.72;4916932;28;115434;-85
2023/04/01 09:33:28;;;;;;;14.27;8.02;;;;;;;13.91;64.49;99583.13;4951907;28;123944;-83
2023/04/01 09:36:03;;;;;;;12.88;7.60;;;;;;;13.91;64.54;99588.44;4938567;28;122094;-83
2023/04/01 09:38:34;;;;;;;;;;;;;;;13.90;64.39;99587.59;4947276;28;112920;-87
2023/04/01 09:41:17;;;;;;;12.52;7.60;;;;;;;13.90;64.33;99592.06;4930156;28;113315;-86
2023/04/01 09:44:02;;;;;;;15.82;8.55;;;;;;;13.91;64.44;99596.44;4936650;28;123745;-84
2023/04/01 09:46:38;;;;;;;15.27;8.85;;;;;;;13.90;64.38;99590.25;4952824;28;123465;-87
2023/04/01 09:49:24;;;;;;;16.20;8.60;;;;;;;13.92;64.42;99600.75;4965391;28;113589;-85
2023/04/01 09:52:18;;;;;;;15.90;8.73;;;;;;;13.93;64.36;99613.13;4938379;28;114084;-85
2023/04/01 09:55:10;;;;;;;19.83;8.55;;;;;;;13.94;64.56;99614.81;4940599;28;123202;-84
2023/04/01 09:57:58;;;;;;;17.48;9.18;;;;;;;13.96;64.50;99607.56;4938632;28;123055;-85
2023/04/01 10:01:11;;;;;;;17.27;9.45;;;;;;;13.98;64.54;99616.28;4955001;28;115108;-87
2023/04/01 10:03:54;;;;;;;16.92;8.75;;;;;;;14.01;64.56;99616.88;4942735;28;113352;-86
2023/04/01 10:06:46;;;;;;;14.82;8.50;;;;;;;14.06;64.73;99618.31;4948885;28;123646;-85
2023/04/01 10:09:39;;;;;;;16.33;8.93;;;;;;;14.09;64.60;99613.59;4957882;28;124573;-84
2023/04/01 10:12:34;;;;;;;15.98;7.95;;;;;;;14.12;64.56;99618.66;4952999;28;114399;-85
2023/04/01 10:15:23;;;;;;;13.80;8.50;;;;;;;14.14;64.54;99626.53;4949120;28;114335;-86
2023/04/01 10:18:26;;;;;;;13.93;7.20;;;;;;;14.16;64.65;99630.75;4930009;28;123548;-84
2023/04/01 10:21:06;;;;;;;12.95;7.55;;;;;;;14.20;64.60;99637.56;4922328;28;123199;-84
2023/04/01 10:23:51;;;;;;;13.88;7.47;;;;;;;14.25;64.67;99644.34;4957550;28;113963;-84
2023/04/01 10:26:41;;;;;;;12.60;7.97;;;;;;;14.27;64.59;99637.06;4935581;28;114834;-84
2023/04/01 10:30:17;;;;;;;10.13;6.80;;;;;;;14.28;64.33;99650.25;4954989;28;124184;-82
2023/04/01 10:33:42;;;;;;;9.98;6.85;;;;;;;14.28;64.38;99644.06;4936761;28;124643;-83
2023/04/01 10:36:35;;;;;;;12.50;7.13;;;;;;;14.27;64.51;99647.72;4881068;28;112443;-82
2023/04/01 10:39:34;;;;;;;12.43;6.97;;;;;;;14.29;64.28;99656.44;4940781;28;113036;-83
2023/04/01 10:42:32;;;;;;;11.50;7.00;;;;;;;14.27;64.42;99651.22;4941899;28;122748;-83
2023/04/01 10:45:38;;;;;;;10.85;6.95;;;;;;;14.26;64.20;99656.66;4942980;28;124502;-82
2023/04/01 10:48:24;;;;;;;11.80;6.65;;;;;;;14.25;64.19;99660.31;4925888;28;113789;-83
2023/04/01 10:51:29;;;;;;;10.52;6.65;;;;;;;14.27;64.22;99669.03;4947761;28;112617;-83
2023/04/01 10:54:31;;;;;;;11.73;6.65;;;;;;;14.25;64.23;99660.31;4937675;28;124871;-81
2023/04/01 10:57:38;;;;;;;12.13;7.28;;;;;;;14.26;64.41;99662.00;4964324;28;124657;-82
2023/04/01 11:00:26;;;;;;;11.40;6.95;;;;;;;14.28;64.38;99676.03;4950424;28;117182;-83
2023/04/01 11:03:56;;;;;;;13.45;7.22;;;;;;;14.30;64.54;99674.13;4933575;28;113264;-80
2023/04/01 11:06:55;;;;;;;13.80;7.07;;;;;;;14.34;64.48;99672.91;4934981;28;124859;-81
2023/04/01 11:09:50;;;;;;;14.20;6.78;;;;;;;14.36;64.53;99678.94;4932641;28;124477;-82
2023/04/01 11:12:29;;;;;;;12.83;7.07;;;;;;;14.40;64.49;99683.06;4931453;28;114134;-81
2023/04/01 11:15:22;;;;;;;10.73;6.70;;;;;;;14.43;64.35;99679.28;4942368;28;113187;-82
2023/04/01 11:18:01;;;;;;;12.23;6.57;;;;;;;14.44;64.43;99681.00;4942078;28;124562;-81
2023/04/01 11:20:50;;;;;;;9.82;5.97;;;;;;;14.46;64.49;99687.88;4933298;28;122085;-82
2023/04/01 11:23:43;;;;;;;11.13;6.57;;;;;;;14.47;64.35;99697.59;4937429;28;112620;-83
2023/04/01 11:26:47;;;;;;;12.48;6.25;;;;;;;14.52;64.55;99692.75;4936070;28;112552;-81
2023/04/01 11:29:51;;;;;;;8.63;5.78;;;;;;;14.59;64.40;99696.63;4950060;28;125495;-82
2023/04/01 11:32:55;;;;;;;8.38;5.38;;;;;;;14.63;64.63;99693.72;4938854;28;123546;-83
2023/04/01 11:35:50;;;;;;;9.07;5.88;;;;;;;14.71;64.54;99699.28;4937191;28;114392;-83
2023/04/01 11:38:36;;;;;;;7.00;4.60;;;;;;;14.74;64.48;99704.38;4934971;28;113551;-84
2023/04/01 11:41:38;;;;;;;7.78;4.63;;;;;;;14.75;64.21;99716.75;4950655;28;124882;-82
2023/04/01 11:44:27;;;;;;;6.30;4.30;;;;;;;14.77;64.39;99709.47;4941103;28;125840;-83
2023/04/01 11:47:32;;;;;;;6.18;4.15;;;;;;;14.76;64.31;99718.41;4918789;28;114052;-83
2023/04/01 11:50:23;;;;;;;7.00;4.32;;;;;;;14.75;64.16;99722.91;4950713;28;113507;-83
2023/04/01 11:53:05;;;;;;;8.40;5.47;;;;;;;14.75;64.34;99722.06;4926492;28;122494;-80
2023/04/01 11:55:42;;;;;;;8.32;5.25;;;;;;;14.78;64.36;99732.47;4952997;28;123548;-81
2023/04/01 11:58:37;;;;;;;8.45;5.45;;;;;;;14.78;64.22;99727.13;4924483;28;113841;-82
2023/04/01 12:01:28;;;;;;;9.02;5.25;;;;;;;14.80;64.29;99735.84;4933896;28;113383;-81
2023/04/01 12:04:30;;;;;;;9.48;5.93;;;;;;;14.83;64.14;99740.94;4916020;28;123837;-83
2023/04/01 12:07:32;;;;;;;10.95;6.43;;;;;;;14.83;64.31;99740.94;4936653;28;123997;-82
2023/04/01 12:10:15;;;;;;;11.63;6.40;;;;;;;14.85;64.33;99748.81;4934094;28;115401;-81
2023/04/01 12:13:10;;;;;;;10.57;6.60;;;;;;;14.83;64.07;99751.59;4931382;28;114388;-84
2023/04/01 12:15:37;;;;;;;12.20;6.57;;;;;;;14.81;64.18;99753.56;4934330;28;122856;-81
2023/04/01 12:18:28;;;;;;;12.25;6.93;;;;;;;14.79;64.12;99752.84;4944308;28;122167;-82
2023/04/01 12:21:14;;;;;;;11.88;6.88;;;;;;;14.81;64.37;99758.03;4943089;28;114830;-82
2023/04/01 12:23:50;;;;;;;11.23;7.10;;;;;;;14.81;64.28;99758.88;4930445;28;112058;-81